createdAt,value
2019-02-26T00:00:54.030Z,57.07
2019-02-26T00:05:59.450Z,57.07
2019-02-26T00:11:06.100Z,57.45
2019-02-26T00:16:12.884Z,57.40
2019-02-26T00:21:16.525Z,58.16
2019-02-26T00:26:22.327Z,57.86
2019-02-26T00:31:28.154Z,58.19
2019-02-26T00:36:33.639Z,58.42
2019-02-26T00:41:40.158Z,58.38
2019-02-26T00:46:43.899Z,58.63
2019-02-26T00:51:49.065Z,58.73
2019-02-26T00:56:57.012Z,58.72
2019-02-26T01:01:59.459Z,58.91
2019-02-26T01:07:05.316Z,59.28
2019-02-26T01:12:11.343Z,59.30
2019-02-26T01:17:16.978Z,59.30
2019-02-26T01:22:21.054Z,59.61
2019-02-26T01:27:25.117Z,59.61
2019-02-26T01:32:29.129Z,60.36
2019-02-26T01:37:36.168Z,60.33
2019-02-26T01:42:38.968Z,60.33
2019-02-26T01:47:45.621Z,60.55
2019-02-26T01:52:50.008Z,60.55
2019-02-26T01:57:58.460Z,60.31
2019-02-26T02:03:00.508Z,60.79
2019-02-26T02:08:04.692Z,60.97
2019-02-26T02:13:09.252Z,60.52
2019-02-26T02:18:14.578Z,60.52
2019-02-26T02:23:19.433Z,61.08
2019-02-26T02:28:26.171Z,60.89
2019-02-26T02:33:33.088Z,60.88
2019-02-26T02:38:37.144Z,60.94
2019-02-26T02:43:41.330Z,60.91
2019-02-26T02:48:45.379Z,61.43
2019-02-26T02:53:51.107Z,61.35
2019-02-26T02:58:55.189Z,61.44
2019-02-26T03:04:01.150Z,61.50
2019-02-26T03:09:14.491Z,61.33
2019-02-26T03:14:18.735Z,61.33
2019-02-26T03:19:22.856Z,61.70
2019-02-26T03:24:28.890Z,61.54
2019-02-26T03:29:32.800Z,61.51
2019-02-26T03:34:36.926Z,61.98
2019-02-26T03:39:40.971Z,61.69
2019-02-26T03:44:46.936Z,61.70
2019-02-26T03:49:50.826Z,62.00
2019-02-26T03:54:54.967Z,61.94
2019-02-26T03:59:59.586Z,61.54
2019-02-26T04:05:06.869Z,61.72
2019-02-26T04:10:10.117Z,61.74
2019-02-26T04:15:14.960Z,61.74
2019-02-26T04:20:19.054Z,61.80
2019-02-26T04:25:32.725Z,62.01
2019-02-26T04:30:57.868Z,62.27
2019-02-26T04:36:20.331Z,62.22
2019-02-26T04:41:34.062Z,62.12
2019-02-26T04:46:48.648Z,62.00
2019-02-26T04:51:52.788Z,62.00
2019-02-26T04:56:56.905Z,61.68
2019-02-26T05:02:00.938Z,61.68
2019-02-26T05:07:08.043Z,61.53
2019-02-26T05:12:11.249Z,61.96
2019-02-26T05:17:15.354Z,61.40
2019-02-26T05:22:22.110Z,61.38
2019-02-26T05:27:25.204Z,61.78
2019-02-26T05:32:30.926Z,61.46
2019-02-26T05:37:37.557Z,61.61
2019-02-26T05:42:40.877Z,61.73
2019-02-26T05:47:46.037Z,61.67
2019-02-26T05:52:57.621Z,61.78
2019-02-26T05:57:56.561Z,61.78
2019-02-26T06:03:00.638Z,61.50
2019-02-26T06:08:04.687Z,61.54
2019-02-26T06:13:10.689Z,61.61
2019-02-26T06:18:14.525Z,61.56
2019-02-26T06:23:18.547Z,61.50
2019-02-26T06:28:22.586Z,61.50
2019-02-26T06:33:31.696Z,61.64
2019-02-26T06:38:33.283Z,61.61
2019-02-26T06:43:39.919Z,61.69
2019-02-26T06:48:43.960Z,61.77
2019-02-26T06:53:49.799Z,61.50
2019-02-26T06:58:53.747Z,61.74
2019-02-26T07:03:57.782Z,61.49
2019-02-26T07:09:01.812Z,61.96
2019-02-26T07:14:07.993Z,61.76
2019-02-26T07:19:14.006Z,61.84
2019-02-26T07:24:18.104Z,61.84
2019-02-26T07:29:23.284Z,61.72
2019-02-26T07:34:27.501Z,61.61
2019-02-26T07:39:31.647Z,61.56
2019-02-26T07:44:35.681Z,48.37
2019-02-26T07:49:39.975Z,50.51
2019-02-26T07:54:44.813Z,51.28
2019-02-26T07:59:50.261Z,52.32
2019-02-26T08:04:54.414Z,52.32
2019-02-26T08:09:58.444Z,54.24
2019-02-26T08:15:04.969Z,54.24
2019-02-26T08:20:10.538Z,49.87
2019-02-26T08:25:15.774Z,49.87
2019-02-26T08:30:22.925Z,47.56
2019-02-26T08:35:25.766Z,47.58
2019-02-26T08:40:29.869Z,48.02
2019-02-26T08:45:33.979Z,48.59
2019-02-26T08:50:39.090Z,48.19
2019-02-26T08:55:43.860Z,48.19
2019-02-26T09:00:47.996Z,50.28
2019-02-26T09:05:53.845Z,50.28
2019-02-26T09:10:57.843Z,51.13
2019-02-26T09:16:03.036Z,51.45
2019-02-26T09:21:09.975Z,51.45
2019-02-26T09:26:13.489Z,52.18
2019-02-26T09:31:17.524Z,52.10
2019-02-26T09:36:26.238Z,52.67
2019-02-26T09:41:30.772Z,53.11
2019-02-26T09:46:36.331Z,53.11
2019-02-26T09:51:40.805Z,53.89
2019-02-26T09:56:44.899Z,53.89
2019-02-26T10:01:48.941Z,54.00
2019-02-26T10:06:53.005Z,54.28
2019-02-26T10:11:57.058Z,54.69
2019-02-26T10:17:01.163Z,54.03
2019-02-26T10:22:07.136Z,53.54
2019-02-26T10:27:12.148Z,53.03
2019-02-26T10:32:16.880Z,53.50
2019-02-26T10:37:20.919Z,53.70
2019-02-26T10:42:24.978Z,53.70
2019-02-26T10:47:29.889Z,53.98
2019-02-26T10:52:34.916Z,50.91
2019-02-26T10:57:39.088Z,52.31
2019-02-26T11:02:46.007Z,52.11
2019-02-26T11:07:49.262Z,52.80
2019-02-26T11:12:54.442Z,52.81
2019-02-26T11:17:59.198Z,53.04
2019-02-26T11:23:05.603Z,52.44
2019-02-26T11:28:10.645Z,52.27
2019-02-26T11:33:16.253Z,52.27
2019-02-26T11:38:22.147Z,52.16
2019-02-26T11:43:28.966Z,52.56
2019-02-26T11:48:33.214Z,52.59
2019-02-26T11:53:37.599Z,52.52
2019-02-26T11:58:41.704Z,53.06
2019-02-26T12:03:45.982Z,52.68
2019-02-26T12:08:50.147Z,52.92
2019-02-26T12:13:54.291Z,52.44
2019-02-26T12:18:59.313Z,52.40
2019-02-26T12:24:06.566Z,52.40
2019-02-26T12:29:10.172Z,52.65
2019-02-26T12:34:15.707Z,52.72
2019-02-26T12:39:22.234Z,52.54
2019-02-26T12:44:28.819Z,44.22
2019-02-26T12:49:33.303Z,40.82
2019-02-26T12:54:39.955Z,40.82
2019-02-26T12:59:43.535Z,46.91
2019-02-26T13:04:50.610Z,48.78
2019-02-26T13:09:56.100Z,51.63
2019-02-26T13:15:03.124Z,52.65
2019-02-26T13:20:11.085Z,53.44
2019-02-26T13:25:17.022Z,53.44
2019-02-26T13:30:21.220Z,55.10
2019-02-26T13:35:25.427Z,56.68
2019-02-26T13:40:29.619Z,56.68
2019-02-26T13:45:33.722Z,57.91
2019-02-26T13:50:39.084Z,57.72
2019-02-26T13:55:43.405Z,58.36
2019-02-26T14:00:48.060Z,59.00
2019-02-26T14:05:52.395Z,59.48
2019-02-26T14:10:56.568Z,59.48
2019-02-26T14:16:00.639Z,58.71
2019-02-26T14:21:04.960Z,58.55
2019-02-26T14:26:09.101Z,59.05
2019-02-26T14:31:13.241Z,59.53
2019-02-26T14:36:17.343Z,59.53
2019-02-26T14:42:00.471Z,57.89
2019-02-26T14:47:04.606Z,57.89
2019-02-26T14:52:08.639Z,58.15
2019-02-26T14:57:12.656Z,58.33
2019-02-26T15:02:17.692Z,58.34
2019-02-26T15:07:21.931Z,58.46
2019-02-26T15:12:25.951Z,58.46
2019-02-26T15:17:30.014Z,58.83
2019-02-26T15:22:34.214Z,58.90
2019-02-26T15:27:38.937Z,58.90
2019-02-26T15:32:43.778Z,59.19
2019-02-26T15:37:48.163Z,59.24
2019-02-26T15:42:54.401Z,59.24
2019-02-26T15:47:58.168Z,59.10
2019-02-26T15:53:02.381Z,59.25
2019-02-26T15:58:07.043Z,59.27
2019-02-26T16:03:11.144Z,59.13
2019-02-26T16:08:15.195Z,59.19
2019-02-26T16:13:19.550Z,59.19
2019-02-26T16:18:23.583Z,59.22
2019-02-26T16:23:27.675Z,58.85
2019-02-26T16:28:31.777Z,59.02
2019-02-26T16:33:35.924Z,58.49
2019-02-26T16:38:40.024Z,58.49
2019-02-26T16:43:44.176Z,58.54
2019-02-26T16:48:48.457Z,59.03
2019-02-26T16:53:52.625Z,59.13
2019-02-26T16:58:56.828Z,59.27
2019-02-26T17:04:00.895Z,59.23
2019-02-26T17:09:07.543Z,58.26
2019-02-26T17:14:12.220Z,57.63
2019-02-26T17:19:17.133Z,56.79
2019-02-26T17:24:21.510Z,56.79
2019-02-26T17:29:25.797Z,56.50
2019-02-26T17:34:29.922Z,56.58
2019-02-26T17:39:34.287Z,56.58
2019-02-26T17:44:38.444Z,56.51
2019-02-26T17:49:42.669Z,56.51
2019-02-26T17:54:46.920Z,56.12
2019-02-26T17:59:52.755Z,56.08
2019-02-26T18:04:58.499Z,56.23
2019-02-26T18:10:03.647Z,55.79
2019-02-26T18:15:08.914Z,55.79
2019-02-26T18:20:15.427Z,55.76
2019-02-26T18:25:19.721Z,56.07
2019-02-26T18:30:23.949Z,56.07
2019-02-26T18:35:28.087Z,56.60
2019-02-26T18:40:32.161Z,56.60
2019-02-26T18:45:36.318Z,56.30
2019-02-26T18:50:40.517Z,56.27
2019-02-26T18:55:44.685Z,56.03
2019-02-26T19:00:48.818Z,55.30
2019-02-26T19:05:54.687Z,55.33
2019-02-26T19:10:58.718Z,55.31
2019-02-26T19:16:02.976Z,55.32
2019-02-26T19:21:07.178Z,55.32
2019-02-26T19:26:13.676Z,55.56
2019-02-26T19:31:17.267Z,55.42
2019-02-26T19:36:21.590Z,54.81
2019-02-26T19:41:25.821Z,55.54
2019-02-26T19:46:30.137Z,54.90
2019-02-26T19:51:34.818Z,55.25
2019-02-26T19:56:39.235Z,55.25
2019-02-26T20:01:43.395Z,54.62
2019-02-26T20:06:47.559Z,54.60
2019-02-26T20:11:53.557Z,54.43
2019-02-26T20:16:57.804Z,54.42
2019-02-26T20:22:01.995Z,54.87
2019-02-26T20:27:06.407Z,54.75
2019-02-26T20:32:10.547Z,54.75
2019-02-26T20:37:14.704Z,55.36
2019-02-26T20:42:18.938Z,54.71
2019-02-26T20:47:23.167Z,55.53
2019-02-26T20:52:27.352Z,55.68
2019-02-26T20:57:31.565Z,55.90
2019-02-26T21:02:35.895Z,55.90
2019-02-26T21:07:40.115Z,56.20
2019-02-26T21:12:44.447Z,56.48
2019-02-26T21:17:48.739Z,56.70
2019-02-26T21:22:54.935Z,56.53
2019-02-26T21:28:01.470Z,56.95
2019-02-26T21:33:05.126Z,57.37
2019-02-26T21:38:09.430Z,57.48
2019-02-26T21:43:13.597Z,57.20
2019-02-26T21:48:17.796Z,57.52
2019-02-26T21:53:21.915Z,57.32
2019-02-26T21:58:26.803Z,57.57
2019-02-26T22:03:31.619Z,57.58
2019-02-26T22:08:35.809Z,57.65
2019-02-26T22:13:39.935Z,57.61
2019-02-26T22:18:44.219Z,58.15
2019-02-26T22:23:48.528Z,57.99
2019-02-26T22:28:53.138Z,58.22
2019-02-26T22:33:57.458Z,58.48
2019-02-26T22:39:01.674Z,58.55
2019-02-26T22:44:05.962Z,58.48
2019-02-26T22:49:10.151Z,58.85
2019-02-26T22:54:14.441Z,58.89
2019-02-26T22:59:18.597Z,58.32
2019-02-26T23:04:22.927Z,58.32
2019-02-26T23:09:29.618Z,59.26
2019-02-26T23:14:35.908Z,59.07
2019-02-26T23:19:40.322Z,58.69
2019-02-26T23:24:45.197Z,59.19
2019-02-26T23:29:49.616Z,58.97
2019-02-26T23:35:05.198Z,59.09
2019-02-26T23:40:13.094Z,59.09
2019-02-26T23:45:17.641Z,58.78
2019-02-26T23:50:21.882Z,59.78
2019-02-26T23:55:27.616Z,59.28
